sensor_id;sensor_type;location;lat;lon;timestamp;P1;durP1;ratioP1;P2;durP2;ratioP2
23346;SDS011;36852;45.466;11.066;2023-12-22T00:01:30;42.23;;;24.25;;
23346;SDS011;36852;45.466;11.066;2023-12-22T00:03:58;40.63;;;23.25;;
23346;SDS011;36852;45.466;11.066;2023-12-22T00:06:26;39.70;;;22.35;;
23346;SDS011;36852;45.466;11.066;2023-12-22T00:08:54;39.48;;;22.00;;
23346;SDS011;36852;45.466;11.066;2023-12-22T00:11:23;35.50;;;22.93;;
23346;SDS011;36852;45.466;11.066;2023-12-22T00:13:51;36.93;;;22.40;;
23346;SDS011;36852;45.466;11.066;2023-12-22T00:16:19;37.90;;;22.45;;
23346;SDS011;36852;45.466;11.066;2023-12-22T00:18:48;32.35;;;21.42;;
23346;SDS011;36852;45.466;11.066;2023-12-22T00:21:17;38.40;;;22.20;;
23346;SDS011;36852;45.466;11.066;2023-12-22T00:23:45;39.23;;;22.60;;
23346;SDS011;36852;45.466;11.066;2023-12-22T00:26:14;36.75;;;22.90;;
23346;SDS011;36852;45.466;11.066;2023-12-22T00:28:42;38.63;;;22.50;;
23346;SDS011;36852;45.466;11.066;2023-12-22T00:31:10;42.33;;;24.30;;
23346;SDS011;36852;45.466;11.066;2023-12-22T00:33:39;37.10;;;21.48;;
23346;SDS011;36852;45.466;11.066;2023-12-22T00:36:07;36.23;;;22.32;;
23346;SDS011;36852;45.466;11.066;2023-12-22T00:38:36;32.45;;;20.37;;
23346;SDS011;36852;45.466;11.066;2023-12-22T00:41:04;29.60;;;19.07;;
23346;SDS011;36852;45.466;11.066;2023-12-22T00:43:32;33.48;;;20.77;;
23346;SDS011;36852;45.466;11.066;2023-12-22T00:46:01;36.48;;;22.90;;
23346;SDS011;36852;45.466;11.066;2023-12-22T00:48:29;36.80;;;22.32;;
23346;SDS011;36852;45.466;11.066;2023-12-22T00:50:58;31.73;;;20.75;;
23346;SDS011;36852;45.466;11.066;2023-12-22T00:53:29;34.95;;;20.10;;
23346;SDS011;36852;45.466;11.066;2023-12-22T00:56:00;31.30;;;20.55;;
23346;SDS011;36852;45.466;11.066;2023-12-22T00:58:30;33.08;;;19.95;;
23346;SDS011;36852;45.466;11.066;2023-12-22T01:00:58;35.92;;;19.45;;
23346;SDS011;36852;45.466;11.066;2023-12-22T01:03:26;25.72;;;16.87;;
23346;SDS011;36852;45.466;11.066;2023-12-22T01:05:55;29.98;;;18.67;;
23346;SDS011;36852;45.466;11.066;2023-12-22T01:08:23;33.45;;;20.57;;
23346;SDS011;36852;45.466;11.066;2023-12-22T01:10:52;33.18;;;21.10;;
23346;SDS011;36852;45.466;11.066;2023-12-22T01:13:20;37.17;;;21.45;;
23346;SDS011;36852;45.466;11.066;2023-12-22T01:15:51;39.73;;;22.20;;
23346;SDS011;36852;45.466;11.066;2023-12-22T01:18:21;36.20;;;21.20;;
23346;SDS011;36852;45.466;11.066;2023-12-22T01:20:49;39.98;;;22.17;;
23346;SDS011;36852;45.466;11.066;2023-12-22T01:23:18;34.80;;;21.55;;
23346;SDS011;36852;45.466;11.066;2023-12-22T01:25:46;40.48;;;23.22;;
23346;SDS011;36852;45.466;11.066;2023-12-22T01:28:15;36.83;;;22.67;;
23346;SDS011;36852;45.466;11.066;2023-12-22T01:30:45;35.95;;;21.60;;
23346;SDS011;36852;45.466;11.066;2023-12-22T01:33:13;37.38;;;23.00;;
23346;SDS011;36852;45.466;11.066;2023-12-22T01:35:41;38.20;;;22.42;;
23346;SDS011;36852;45.466;11.066;2023-12-22T01:38:09;35.50;;;21.82;;
23346;SDS011;36852;45.466;11.066;2023-12-22T01:40:38;30.30;;;19.27;;
23346;SDS011;36852;45.466;11.066;2023-12-22T01:43:09;27.98;;;18.62;;
23346;SDS011;36852;45.466;11.066;2023-12-22T01:45:37;30.37;;;18.98;;
23346;SDS011;36852;45.466;11.066;2023-12-22T01:48:06;30.20;;;18.50;;
23346;SDS011;36852;45.466;11.066;2023-12-22T01:50:35;30.82;;;18.90;;
23346;SDS011;36852;45.466;11.066;2023-12-22T01:53:04;36.40;;;20.82;;
23346;SDS011;36852;45.466;11.066;2023-12-22T01:55:32;33.85;;;18.87;;
23346;SDS011;36852;45.466;11.066;2023-12-22T01:58:01;33.40;;;18.10;;
23346;SDS011;36852;45.466;11.066;2023-12-22T02:00:29;30.72;;;18.67;;
23346;SDS011;36852;45.466;11.066;2023-12-22T02:03:01;31.82;;;17.67;;
23346;SDS011;36852;45.466;11.066;2023-12-22T02:05:30;35.68;;;19.80;;
23346;SDS011;36852;45.466;11.066;2023-12-22T02:07:59;31.52;;;19.12;;
23346;SDS011;36852;45.466;11.066;2023-12-22T02:10:27;35.98;;;20.20;;
23346;SDS011;36852;45.466;11.066;2023-12-22T02:12:56;32.50;;;19.23;;
23346;SDS011;36852;45.466;11.066;2023-12-22T02:15:23;32.03;;;19.50;;
23346;SDS011;36852;45.466;11.066;2023-12-22T02:17:54;29.60;;;18.75;;
23346;SDS011;36852;45.466;11.066;2023-12-22T02:20:23;30.50;;;19.98;;
23346;SDS011;36852;45.466;11.066;2023-12-22T02:22:52;31.87;;;19.20;;
23346;SDS011;36852;45.466;11.066;2023-12-22T02:25:21;30.88;;;19.35;;
23346;SDS011;36852;45.466;11.066;2023-12-22T02:27:52;28.38;;;18.07;;
23346;SDS011;36852;45.466;11.066;2023-12-22T02:33:11;28.57;;;17.62;;
23346;SDS011;36852;45.466;11.066;2023-12-22T02:35:43;29.30;;;19.05;;
23346;SDS011;36852;45.466;11.066;2023-12-22T02:38:14;31.50;;;19.73;;
23346;SDS011;36852;45.466;11.066;2023-12-22T02:40:44;30.70;;;18.87;;
23346;SDS011;36852;45.466;11.066;2023-12-22T02:43:13;33.25;;;19.67;;
23346;SDS011;36852;45.466;11.066;2023-12-22T02:45:41;32.53;;;20.48;;
23346;SDS011;36852;45.466;11.066;2023-12-22T02:48:09;37.28;;;22.00;;
23346;SDS011;36852;45.466;11.066;2023-12-22T02:50:38;35.03;;;20.80;;
23346;SDS011;36852;45.466;11.066;2023-12-22T02:53:07;35.13;;;21.90;;
23346;SDS011;36852;45.466;11.066;2023-12-22T02:55:39;26.50;;;17.15;;
23346;SDS011;36852;45.466;11.066;2023-12-22T02:58:07;23.22;;;15.10;;
23346;SDS011;36852;45.466;11.066;2023-12-22T03:00:34;29.87;;;16.73;;
23346;SDS011;36852;45.466;11.066;2023-12-22T03:03:03;30.20;;;16.52;;
23346;SDS011;36852;45.466;11.066;2023-12-22T03:05:31;25.97;;;16.07;;
23346;SDS011;36852;45.466;11.066;2023-12-22T03:08:00;24.90;;;15.72;;
23346;SDS011;36852;45.466;11.066;2023-12-22T03:10:32;27.50;;;17.70;;
23346;SDS011;36852;45.466;11.066;2023-12-22T03:13:00;26.50;;;17.05;;
23346;SDS011;36852;45.466;11.066;2023-12-22T03:15:28;35.48;;;19.42;;
23346;SDS011;36852;45.466;11.066;2023-12-22T03:17:55;34.75;;;20.68;;
23346;SDS011;36852;45.466;11.066;2023-12-22T03:20:23;34.98;;;20.82;;
23346;SDS011;36852;45.466;11.066;2023-12-22T03:22:51;35.33;;;19.87;;
23346;SDS011;36852;45.466;11.066;2023-12-22T03:25:21;32.38;;;20.25;;
23346;SDS011;36852;45.466;11.066;2023-12-22T03:27:49;29.07;;;19.02;;
23346;SDS011;36852;45.466;11.066;2023-12-22T03:30:17;28.98;;;18.35;;
23346;SDS011;36852;45.466;11.066;2023-12-22T03:32:46;32.75;;;19.23;;
23346;SDS011;36852;45.466;11.066;2023-12-22T03:35:14;29.35;;;18.40;;
23346;SDS011;36852;45.466;11.066;2023-12-22T03:37:43;34.98;;;19.10;;
23346;SDS011;36852;45.466;11.066;2023-12-22T03:40:11;34.00;;;18.70;;
23346;SDS011;36852;45.466;11.066;2023-12-22T03:42:39;35.13;;;19.52;;
23346;SDS011;36852;45.466;11.066;2023-12-22T03:45:08;20.52;;;11.78;;
23346;SDS011;36852;45.466;11.066;2023-12-22T03:47:37;29.32;;;18.23;;
23346;SDS011;36852;45.466;11.066;2023-12-22T03:50:05;17.60;;;10.93;;
23346;SDS011;36852;45.466;11.066;2023-12-22T03:52:34;25.27;;;15.58;;
23346;SDS011;36852;45.466;11.066;2023-12-22T03:55:03;25.45;;;15.40;;
23346;SDS011;36852;45.466;11.066;2023-12-22T03:57:34;14.30;;;8.83;;
23346;SDS011;36852;45.466;11.066;2023-12-22T04:00:02;24.85;;;12.43;;
23346;SDS011;36852;45.466;11.066;2023-12-22T04:02:32;6.97;;;4.62;;
23346;SDS011;36852;45.466;11.066;2023-12-22T04:05:00;6.05;;;3.47;;
23346;SDS011;36852;45.466;11.066;2023-12-22T04:07:28;6.53;;;2.40;;
23346;SDS011;36852;45.466;11.066;2023-12-22T04:09:57;8.63;;;4.92;;
23346;SDS011;36852;45.466;11.066;2023-12-22T04:12:25;22.02;;;14.35;;
23346;SDS011;36852;45.466;11.066;2023-12-22T04:14:54;26.73;;;18.10;;
23346;SDS011;36852;45.466;11.066;2023-12-22T04:17:22;30.37;;;19.80;;
23346;SDS011;36852;45.466;11.066;2023-12-22T04:19:49;24.32;;;16.50;;
23346;SDS011;36852;45.466;11.066;2023-12-22T04:22:17;37.53;;;21.93;;
23346;SDS011;36852;45.466;11.066;2023-12-22T04:24:45;34.67;;;22.62;;
23346;SDS011;36852;45.466;11.066;2023-12-22T04:27:14;33.30;;;23.10;;
23346;SDS011;36852;45.466;11.066;2023-12-22T04:29:43;36.65;;;22.93;;
23346;SDS011;36852;45.466;11.066;2023-12-22T04:32:11;37.83;;;24.25;;
23346;SDS011;36852;45.466;11.066;2023-12-22T04:34:39;38.85;;;25.08;;
23346;SDS011;36852;45.466;11.066;2023-12-22T04:37:08;26.40;;;17.15;;
23346;SDS011;36852;45.466;11.066;2023-12-22T04:39:37;39.67;;;24.18;;
23346;SDS011;36852;45.466;11.066;2023-12-22T04:42:08;40.08;;;25.43;;
23346;SDS011;36852;45.466;11.066;2023-12-22T04:44:37;39.10;;;25.48;;
23346;SDS011;36852;45.466;11.066;2023-12-22T04:47:05;45.80;;;26.27;;
23346;SDS011;36852;45.466;11.066;2023-12-22T04:49:33;40.52;;;25.15;;
23346;SDS011;36852;45.466;11.066;2023-12-22T04:52:01;43.13;;;26.90;;
23346;SDS011;36852;45.466;11.066;2023-12-22T04:54:30;42.90;;;29.15;;
23346;SDS011;36852;45.466;11.066;2023-12-22T04:56:57;44.10;;;27.05;;
23346;SDS011;36852;45.466;11.066;2023-12-22T04:59:26;45.25;;;28.17;;
23346;SDS011;36852;45.466;11.066;2023-12-22T05:01:54;43.13;;;26.95;;
23346;SDS011;36852;45.466;11.066;2023-12-22T05:04:22;39.55;;;27.22;;
23346;SDS011;36852;45.466;11.066;2023-12-22T05:06:50;44.80;;;27.35;;
23346;SDS011;36852;45.466;11.066;2023-12-22T05:09:21;38.67;;;26.65;;
23346;SDS011;36852;45.466;11.066;2023-12-22T05:11:52;44.27;;;27.95;;
23346;SDS011;36852;45.466;11.066;2023-12-22T05:14:20;44.18;;;27.52;;
23346;SDS011;36852;45.466;11.066;2023-12-22T05:16:48;38.35;;;27.58;;
23346;SDS011;36852;45.466;11.066;2023-12-22T05:19:16;41.95;;;27.05;;
23346;SDS011;36852;45.466;11.066;2023-12-22T05:21:44;41.00;;;26.48;;
23346;SDS011;36852;45.466;11.066;2023-12-22T05:24:12;41.37;;;26.65;;
23346;SDS011;36852;45.466;11.066;2023-12-22T05:26:45;42.10;;;27.73;;
23346;SDS011;36852;45.466;11.066;2023-12-22T05:29:13;43.78;;;27.85;;
23346;SDS011;36852;45.466;11.066;2023-12-22T05:31:41;40.55;;;26.87;;
23346;SDS011;36852;45.466;11.066;2023-12-22T05:34:10;38.88;;;25.72;;
23346;SDS011;36852;45.466;11.066;2023-12-22T05:36:37;38.20;;;25.50;;
23346;SDS011;36852;45.466;11.066;2023-12-22T05:39:05;39.92;;;24.63;;
23346;SDS011;36852;45.466;11.066;2023-12-22T05:41:38;38.30;;;25.70;;
23346;SDS011;36852;45.466;11.066;2023-12-22T05:44:06;41.40;;;26.97;;
23346;SDS011;36852;45.466;11.066;2023-12-22T05:46:37;43.20;;;27.75;;
23346;SDS011;36852;45.466;11.066;2023-12-22T05:49:05;46.33;;;28.17;;
23346;SDS011;36852;45.466;11.066;2023-12-22T05:51:37;43.85;;;27.73;;
23346;SDS011;36852;45.466;11.066;2023-12-22T05:54:08;47.85;;;29.70;;
23346;SDS011;36852;45.466;11.066;2023-12-22T05:56:38;42.78;;;25.90;;
23346;SDS011;36852;45.466;11.066;2023-12-22T05:59:05;38.95;;;24.77;;
23346;SDS011;36852;45.466;11.066;2023-12-22T06:01:34;43.05;;;28.75;;
23346;SDS011;36852;45.466;11.066;2023-12-22T06:04:02;35.70;;;22.90;;
23346;SDS011;36852;45.466;11.066;2023-12-22T06:06:30;32.30;;;20.72;;
23346;SDS011;36852;45.466;11.066;2023-12-22T06:09:02;29.00;;;18.32;;
23346;SDS011;36852;45.466;11.066;2023-12-22T06:11:30;29.10;;;18.87;;
23346;SDS011;36852;45.466;11.066;2023-12-22T06:13:58;26.27;;;16.77;;
23346;SDS011;36852;45.466;11.066;2023-12-22T06:16:27;21.10;;;13.93;;
23346;SDS011;36852;45.466;11.066;2023-12-22T06:18:54;19.10;;;11.78;;
23346;SDS011;36852;45.466;11.066;2023-12-22T06:21:22;16.27;;;9.25;;
23346;SDS011;36852;45.466;11.066;2023-12-22T06:23:50;13.28;;;8.18;;
23346;SDS011;36852;45.466;11.066;2023-12-22T06:26:18;14.33;;;7.58;;
23346;SDS011;36852;45.466;11.066;2023-12-22T06:28:46;10.32;;;6.80;;
23346;SDS011;36852;45.466;11.066;2023-12-22T06:31:18;13.90;;;6.30;;
23346;SDS011;36852;45.466;11.066;2023-12-22T06:33:47;21.00;;;13.55;;
23346;SDS011;36852;45.466;11.066;2023-12-22T06:36:22;20.52;;;14.70;;
23346;SDS011;36852;45.466;11.066;2023-12-22T06:38:52;20.20;;;14.28;;
23346;SDS011;36852;45.466;11.066;2023-12-22T06:41:24;22.60;;;13.38;;
23346;SDS011;36852;45.466;11.066;2023-12-22T06:43:59;28.57;;;13.90;;
23346;SDS011;36852;45.466;11.066;2023-12-22T06:46:28;18.87;;;13.20;;
23346;SDS011;36852;45.466;11.066;2023-12-22T06:48:58;24.45;;;13.85;;
23346;SDS011;36852;45.466;11.066;2023-12-22T06:51:31;22.25;;;14.65;;
23346;SDS011;36852;45.466;11.066;2023-12-22T06:54:01;19.35;;;12.53;;
23346;SDS011;36852;45.466;11.066;2023-12-22T06:56:33;14.78;;;10.63;;
23346;SDS011;36852;45.466;11.066;2023-12-22T06:59:02;20.70;;;13.20;;
23346;SDS011;36852;45.466;11.066;2023-12-22T07:01:31;25.35;;;13.68;;
23346;SDS011;36852;45.466;11.066;2023-12-22T07:04:01;20.75;;;13.78;;
23346;SDS011;36852;45.466;11.066;2023-12-22T07:06:31;19.42;;;12.45;;
23346;SDS011;36852;45.466;11.066;2023-12-22T07:11:51;19.10;;;13.88;;
23346;SDS011;36852;45.466;11.066;2023-12-22T07:14:24;18.52;;;12.55;;
23346;SDS011;36852;45.466;11.066;2023-12-22T07:16:52;19.60;;;11.97;;
23346;SDS011;36852;45.466;11.066;2023-12-22T07:19:20;16.52;;;10.93;;
23346;SDS011;36852;45.466;11.066;2023-12-22T07:21:50;19.15;;;10.38;;
23346;SDS011;36852;45.466;11.066;2023-12-22T07:24:21;14.90;;;9.43;;
23346;SDS011;36852;45.466;11.066;2023-12-22T07:26:49;12.50;;;8.13;;
23346;SDS011;36852;45.466;11.066;2023-12-22T07:29:17;9.83;;;6.70;;
23346;SDS011;36852;45.466;11.066;2023-12-22T07:31:47;10.95;;;6.70;;
23346;SDS011;36852;45.466;11.066;2023-12-22T07:34:16;8.93;;;5.83;;
23346;SDS011;36852;45.466;11.066;2023-12-22T07:36:44;12.05;;;5.87;;
23346;SDS011;36852;45.466;11.066;2023-12-22T07:39:14;11.85;;;7.37;;
23346;SDS011;36852;45.466;11.066;2023-12-22T07:41:44;17.45;;;9.93;;
23346;SDS011;36852;45.466;11.066;2023-12-22T07:44:12;17.62;;;10.45;;
23346;SDS011;36852;45.466;11.066;2023-12-22T07:46:40;14.00;;;10.53;;
23346;SDS011;36852;45.466;11.066;2023-12-22T07:49:10;18.35;;;10.20;;
23346;SDS011;36852;45.466;11.066;2023-12-22T07:51:38;15.83;;;10.80;;
23346;SDS011;36852;45.466;11.066;2023-12-22T07:54:09;23.87;;;10.05;;
23346;SDS011;36852;45.466;11.066;2023-12-22T07:56:37;15.55;;;10.98;;
23346;SDS011;36852;45.466;11.066;2023-12-22T07:59:05;20.32;;;10.43;;
23346;SDS011;36852;45.466;11.066;2023-12-22T08:01:35;14.60;;;9.75;;
23346;SDS011;36852;45.466;11.066;2023-12-22T08:04:03;18.50;;;10.70;;
23346;SDS011;36852;45.466;11.066;2023-12-22T08:06:32;19.32;;;10.30;;
23346;SDS011;36852;45.466;11.066;2023-12-22T08:09:00;15.15;;;9.38;;
23346;SDS011;36852;45.466;11.066;2023-12-22T08:11:28;17.65;;;9.93;;
23346;SDS011;36852;45.466;11.066;2023-12-22T08:13:57;15.78;;;9.33;;
23346;SDS011;36852;45.466;11.066;2023-12-22T08:16:26;23.92;;;16.85;;
23346;SDS011;36852;45.466;11.066;2023-12-22T08:18:54;19.15;;;13.60;;
23346;SDS011;36852;45.466;11.066;2023-12-22T08:21:22;24.05;;;13.70;;
23346;SDS011;36852;45.466;11.066;2023-12-22T08:23:52;18.23;;;12.05;;
23346;SDS011;36852;45.466;11.066;2023-12-22T08:26:21;14.93;;;11.03;;
23346;SDS011;36852;45.466;11.066;2023-12-22T08:28:49;27.67;;;19.27;;
23346;SDS011;36852;45.466;11.066;2023-12-22T08:31:18;22.10;;;13.90;;
23346;SDS011;36852;45.466;11.066;2023-12-22T08:33:47;20.43;;;11.45;;
23346;SDS011;36852;45.466;11.066;2023-12-22T08:36:16;20.37;;;12.85;;
23346;SDS011;36852;45.466;11.066;2023-12-22T08:38:44;20.48;;;12.13;;
23346;SDS011;36852;45.466;11.066;2023-12-22T08:41:13;23.32;;;13.88;;
23346;SDS011;36852;45.466;11.066;2023-12-22T08:43:44;21.42;;;14.23;;
23346;SDS011;36852;45.466;11.066;2023-12-22T08:46:12;24.00;;;14.65;;
23346;SDS011;36852;45.466;11.066;2023-12-22T08:48:44;21.65;;;13.65;;
23346;SDS011;36852;45.466;11.066;2023-12-22T08:51:12;14.38;;;10.15;;
23346;SDS011;36852;45.466;11.066;2023-12-22T08:53:40;13.32;;;7.92;;
23346;SDS011;36852;45.466;11.066;2023-12-22T08:56:09;9.08;;;5.70;;
23346;SDS011;36852;45.466;11.066;2023-12-22T08:58:37;8.65;;;5.22;;
23346;SDS011;36852;45.466;11.066;2023-12-22T09:01:14;9.55;;;5.50;;
23346;SDS011;36852;45.466;11.066;2023-12-22T09:03:42;10.53;;;7.28;;
23346;SDS011;36852;45.466;11.066;2023-12-22T09:06:20;9.18;;;7.55;;
23346;SDS011;36852;45.466;11.066;2023-12-22T09:08:46;9.85;;;6.50;;
23346;SDS011;36852;45.466;11.066;2023-12-22T09:11:15;8.45;;;6.05;;
23346;SDS011;36852;45.466;11.066;2023-12-22T09:13:44;10.58;;;6.55;;
23346;SDS011;36852;45.466;11.066;2023-12-22T09:16:13;12.80;;;5.70;;
23346;SDS011;36852;45.466;11.066;2023-12-22T09:18:44;8.50;;;5.67;;
23346;SDS011;36852;45.466;11.066;2023-12-22T09:21:18;10.20;;;6.25;;
23346;SDS011;36852;45.466;11.066;2023-12-22T09:23:46;10.32;;;6.62;;
23346;SDS011;36852;45.466;11.066;2023-12-22T09:26:14;11.48;;;7.20;;
23346;SDS011;36852;45.466;11.066;2023-12-22T09:28:43;12.55;;;7.05;;
23346;SDS011;36852;45.466;11.066;2023-12-22T09:31:12;12.18;;;7.50;;
23346;SDS011;36852;45.466;11.066;2023-12-22T09:33:42;12.98;;;7.92;;
23346;SDS011;36852;45.466;11.066;2023-12-22T09:36:10;9.35;;;7.28;;
23346;SDS011;36852;45.466;11.066;2023-12-22T09:38:39;13.60;;;7.53;;
23346;SDS011;36852;45.466;11.066;2023-12-22T09:41:09;9.58;;;7.58;;
23346;SDS011;36852;45.466;11.066;2023-12-22T09:43:38;12.47;;;7.22;;
23346;SDS011;36852;45.466;11.066;2023-12-22T09:46:08;12.47;;;7.65;;
23346;SDS011;36852;45.466;11.066;2023-12-22T09:48:39;12.43;;;7.35;;
23346;SDS011;36852;45.466;11.066;2023-12-22T09:51:09;13.60;;;8.35;;
23346;SDS011;36852;45.466;11.066;2023-12-22T09:53:39;13.50;;;7.45;;
23346;SDS011;36852;45.466;11.066;2023-12-22T09:56:09;12.93;;;7.72;;
23346;SDS011;36852;45.466;11.066;2023-12-22T09:58:37;19.30;;;8.15;;
23346;SDS011;36852;45.466;11.066;2023-12-22T10:01:06;11.90;;;8.18;;
23346;SDS011;36852;45.466;11.066;2023-12-22T10:03:36;19.27;;;10.95;;
23346;SDS011;36852;45.466;11.066;2023-12-22T10:06:05;13.70;;;9.70;;
23346;SDS011;36852;45.466;11.066;2023-12-22T10:08:33;13.83;;;9.78;;
23346;SDS011;36852;45.466;11.066;2023-12-22T10:11:04;7.53;;;4.58;;
23346;SDS011;36852;45.466;11.066;2023-12-22T10:13:33;9.08;;;4.37;;
23346;SDS011;36852;45.466;11.066;2023-12-22T10:16:04;4.22;;;2.30;;
23346;SDS011;36852;45.466;11.066;2023-12-22T10:18:34;7.03;;;2.15;;
23346;SDS011;36852;45.466;11.066;2023-12-22T10:21:02;6.60;;;2.52;;
23346;SDS011;36852;45.466;11.066;2023-12-22T10:23:30;2.27;;;1.60;;
23346;SDS011;36852;45.466;11.066;2023-12-22T10:26:00;6.85;;;1.85;;
23346;SDS011;36852;45.466;11.066;2023-12-22T10:28:27;3.65;;;2.15;;
23346;SDS011;36852;45.466;11.066;2023-12-22T10:30:56;5.75;;;3.10;;
23346;SDS011;36852;45.466;11.066;2023-12-22T10:33:25;7.97;;;3.95;;
23346;SDS011;36852;45.466;11.066;2023-12-22T10:35:54;6.03;;;3.62;;
23346;SDS011;36852;45.466;11.066;2023-12-22T10:38:22;5.45;;;2.42;;
23346;SDS011;36852;45.466;11.066;2023-12-22T10:40:51;4.22;;;1.82;;
23346;SDS011;36852;45.466;11.066;2023-12-22T10:43:19;8.28;;;1.75;;
23346;SDS011;36852;45.466;11.066;2023-12-22T10:45:47;1.90;;;1.10;;
23346;SDS011;36852;45.466;11.066;2023-12-22T10:48:15;4.42;;;1.30;;
23346;SDS011;36852;45.466;11.066;2023-12-22T10:50:43;3.15;;;1.40;;
23346;SDS011;36852;45.466;11.066;2023-12-22T10:53:11;6.25;;;1.20;;
23346;SDS011;36852;45.466;11.066;2023-12-22T10:55:40;6.87;;;2.17;;
23346;SDS011;36852;45.466;11.066;2023-12-22T10:58:09;2.20;;;1.42;;
23346;SDS011;36852;45.466;11.066;2023-12-22T11:00:37;5.80;;;2.12;;
23346;SDS011;36852;45.466;11.066;2023-12-22T11:03:07;4.28;;;1.85;;
23346;SDS011;36852;45.466;11.066;2023-12-22T11:05:40;4.62;;;1.42;;
23346;SDS011;36852;45.466;11.066;2023-12-22T11:08:12;5.70;;;1.57;;
23346;SDS011;36852;45.466;11.066;2023-12-22T11:10:42;4.05;;;2.27;;
23346;SDS011;36852;45.466;11.066;2023-12-22T11:13:12;7.03;;;3.42;;
23346;SDS011;36852;45.466;11.066;2023-12-22T11:15:40;4.65;;;1.80;;
23346;SDS011;36852;45.466;11.066;2023-12-22T11:18:10;7.72;;;1.85;;
23346;SDS011;36852;45.466;11.066;2023-12-22T11:20:39;5.95;;;1.92;;
23346;SDS011;36852;45.466;11.066;2023-12-22T11:23:09;2.02;;;1.52;;
23346;SDS011;36852;45.466;11.066;2023-12-22T11:25:37;7.08;;;1.40;;
23346;SDS011;36852;45.466;11.066;2023-12-22T11:28:07;2.85;;;1.62;;
23346;SDS011;36852;45.466;11.066;2023-12-22T11:30:37;6.40;;;1.77;;
23346;SDS011;36852;45.466;11.066;2023-12-22T11:33:05;3.47;;;1.42;;
23346;SDS011;36852;45.466;11.066;2023-12-22T11:35:34;4.35;;;1.32;;
23346;SDS011;36852;45.466;11.066;2023-12-22T11:38:03;7.15;;;2.02;;
23346;SDS011;36852;45.466;11.066;2023-12-22T11:40:33;4.15;;;1.90;;
23346;SDS011;36852;45.466;11.066;2023-12-22T11:43:01;4.35;;;1.30;;
23346;SDS011;36852;45.466;11.066;2023-12-22T11:45:30;6.85;;;2.37;;
23346;SDS011;36852;45.466;11.066;2023-12-22T11:48:06;7.85;;;2.25;;
23346;SDS011;36852;45.466;11.066;2023-12-22T11:50:39;12.70;;;2.60;;
23346;SDS011;36852;45.466;11.066;2023-12-22T11:53:17;6.03;;;2.77;;
23346;SDS011;36852;45.466;11.066;2023-12-22T12:01:10;6.62;;;2.10;;
23346;SDS011;36852;45.466;11.066;2023-12-22T12:03:47;7.22;;;2.10;;
23346;SDS011;36852;45.466;11.066;2023-12-22T12:08:59;4.37;;;1.80;;
23346;SDS011;36852;45.466;11.066;2023-12-22T12:17:03;4.53;;;2.02;;
23346;SDS011;36852;45.466;11.066;2023-12-22T12:19:34;7.45;;;1.98;;
23346;SDS011;36852;45.466;11.066;2023-12-22T12:22:05;4.42;;;1.27;;
23346;SDS011;36852;45.466;11.066;2023-12-22T12:24:33;3.87;;;1.60;;
23346;SDS011;36852;45.466;11.066;2023-12-22T12:27:03;6.87;;;1.70;;
23346;SDS011;36852;45.466;11.066;2023-12-22T12:29:32;3.33;;;1.75;;
23346;SDS011;36852;45.466;11.066;2023-12-22T12:32:07;5.22;;;3.20;;
23346;SDS011;36852;45.466;11.066;2023-12-22T12:34:34;6.72;;;2.42;;
23346;SDS011;36852;45.466;11.066;2023-12-22T12:37:04;5.45;;;2.20;;
23346;SDS011;36852;45.466;11.066;2023-12-22T12:39:34;5.08;;;2.50;;
23346;SDS011;36852;45.466;11.066;2023-12-22T12:42:02;5.67;;;2.17;;
23346;SDS011;36852;45.466;11.066;2023-12-22T12:44:37;4.60;;;2.00;;
23346;SDS011;36852;45.466;11.066;2023-12-22T12:47:12;4.25;;;2.40;;
23346;SDS011;36852;45.466;11.066;2023-12-22T12:49:42;10.25;;;3.22;;
23346;SDS011;36852;45.466;11.066;2023-12-22T12:52:14;6.83;;;2.42;;
23346;SDS011;36852;45.466;11.066;2023-12-22T12:54:42;6.42;;;2.92;;
23346;SDS011;36852;45.466;11.066;2023-12-22T12:57:14;5.60;;;2.85;;
23346;SDS011;36852;45.466;11.066;2023-12-22T12:59:44;9.33;;;2.10;;
23346;SDS011;36852;45.466;11.066;2023-12-22T13:02:16;7.20;;;2.02;;
23346;SDS011;36852;45.466;11.066;2023-12-22T13:04:51;6.40;;;3.27;;
23346;SDS011;36852;45.466;11.066;2023-12-22T13:07:23;4.25;;;1.90;;
23346;SDS011;36852;45.466;11.066;2023-12-22T13:09:52;5.90;;;1.92;;
23346;SDS011;36852;45.466;11.066;2023-12-22T13:12:25;3.52;;;1.85;;
23346;SDS011;36852;45.466;11.066;2023-12-22T13:14:53;1.90;;;0.80;;
23346;SDS011;36852;45.466;11.066;2023-12-22T13:17:21;5.53;;;0.98;;
23346;SDS011;36852;45.466;11.066;2023-12-22T13:19:49;1.60;;;0.90;;
23346;SDS011;36852;45.466;11.066;2023-12-22T13:22:18;3.75;;;1.70;;
23346;SDS011;36852;45.466;11.066;2023-12-22T13:24:55;4.97;;;1.25;;
23346;SDS011;36852;45.466;11.066;2023-12-22T13:27:26;3.45;;;1.22;;
23346;SDS011;36852;45.466;11.066;2023-12-22T13:29:54;1.15;;;0.70;;
23346;SDS011;36852;45.466;11.066;2023-12-22T13:32:28;2.17;;;0.90;;
23346;SDS011;36852;45.466;11.066;2023-12-22T13:34:57;3.27;;;0.60;;
23346;SDS011;36852;45.466;11.066;2023-12-22T13:37:25;2.62;;;0.72;;
23346;SDS011;36852;45.466;11.066;2023-12-22T13:39:56;1.32;;;0.75;;
23346;SDS011;36852;45.466;11.066;2023-12-22T13:42:24;6.65;;;1.00;;
23346;SDS011;36852;45.466;11.066;2023-12-22T13:44:53;2.12;;;1.25;;
23346;SDS011;36852;45.466;11.066;2023-12-22T13:47:21;2.75;;;0.60;;
23346;SDS011;36852;45.466;11.066;2023-12-22T13:49:52;1.87;;;1.07;;
23346;SDS011;36852;45.466;11.066;2023-12-22T13:52:31;4.78;;;0.93;;
23346;SDS011;36852;45.466;11.066;2023-12-22T13:55:09;3.83;;;1.07;;
23346;SDS011;36852;45.466;11.066;2023-12-22T13:57:41;2.72;;;0.90;;
23346;SDS011;36852;45.466;11.066;2023-12-22T14:02:48;3.70;;;0.78;;
23346;SDS011;36852;45.466;11.066;2023-12-22T14:05:16;2.17;;;1.00;;
23346;SDS011;36852;45.466;11.066;2023-12-22T14:07:45;1.02;;;0.68;;
23346;SDS011;36852;45.466;11.066;2023-12-22T14:10:14;1.75;;;0.65;;
23346;SDS011;36852;45.466;11.066;2023-12-22T14:12:44;2.45;;;0.90;;
23346;SDS011;36852;45.466;11.066;2023-12-22T14:15:12;1.00;;;0.80;;
23346;SDS011;36852;45.466;11.066;2023-12-22T14:17:40;1.30;;;1.20;;
23346;SDS011;36852;45.466;11.066;2023-12-22T14:20:11;1.20;;;0.80;;
23346;SDS011;36852;45.466;11.066;2023-12-22T14:22:39;1.67;;;0.80;;
23346;SDS011;36852;45.466;11.066;2023-12-22T14:25:07;1.60;;;0.65;;
23346;SDS011;36852;45.466;11.066;2023-12-22T14:27:36;1.02;;;0.80;;
23346;SDS011;36852;45.466;11.066;2023-12-22T14:30:06;2.10;;;0.80;;
23346;SDS011;36852;45.466;11.066;2023-12-22T14:32:34;1.25;;;0.72;;
23346;SDS011;36852;45.466;11.066;2023-12-22T14:35:02;1.02;;;0.70;;
23346;SDS011;36852;45.466;11.066;2023-12-22T14:37:32;4.22;;;0.70;;
23346;SDS011;36852;45.466;11.066;2023-12-22T14:40:01;3.67;;;1.02;;
23346;SDS011;36852;45.466;11.066;2023-12-22T14:42:30;1.60;;;0.85;;
23346;SDS011;36852;45.466;11.066;2023-12-22T14:45:00;3.83;;;1.50;;
23346;SDS011;36852;45.466;11.066;2023-12-22T14:47:33;1.70;;;1.25;;
23346;SDS011;36852;45.466;11.066;2023-12-22T14:50:02;1.65;;;0.90;;
23346;SDS011;36852;45.466;11.066;2023-12-22T14:52:31;1.62;;;1.12;;